sensor_id;sensor_type;location;lat;lon;timestamp;temperature;humidity
23291;DHT22;11814;44.686;10.842;2023-04-03T00:00:21;9.90;99.90
23291;DHT22;11814;44.686;10.842;2023-04-03T00:02:47;9.90;99.90
23291;DHT22;11814;44.686;10.842;2023-04-03T00:05:12;9.90;99.90
23291;DHT22;11814;44.686;10.842;2023-04-03T00:07:38;9.90;99.90
23291;DHT22;11814;44.686;10.842;2023-04-03T00:10:04;9.90;99.90
23291;DHT22;11814;44.686;10.842;2023-04-03T00:12:30;9.90;99.90
23291;DHT22;11814;44.686;10.842;2023-04-03T00:14:55;9.90;99.90
23291;DHT22;11814;44.686;10.842;2023-04-03T00:17:21;9.80;99.90
23291;DHT22;11814;44.686;10.842;2023-04-03T00:19:47;9.80;99.90
23291;DHT22;11814;44.686;10.842;2023-04-03T00:22:12;9.90;99.90
23291;DHT22;11814;44.686;10.842;2023-04-03T00:24:38;9.90;99.90
23291;DHT22;11814;44.686;10.842;2023-04-03T00:27:03;9.90;99.90
23291;DHT22;11814;44.686;10.842;2023-04-03T00:29:29;9.90;99.90
23291;DHT22;11814;44.686;10.842;2023-04-03T00:31:55;9.90;99.90
23291;DHT22;11814;44.686;10.842;2023-04-03T00:34:21;9.90;99.90
23291;DHT22;11814;44.686;10.842;2023-04-03T00:36:46;10.00;99.90
23291;DHT22;11814;44.686;10.842;2023-04-03T00:39:12;10.00;99.90
23291;DHT22;11814;44.686;10.842;2023-04-03T00:41:38;9.90;99.90
23291;DHT22;11814;44.686;10.842;2023-04-03T00:46:58;9.90;99.90
23291;DHT22;11814;44.686;10.842;2023-04-03T00:49:23;9.90;99.90
23291;DHT22;11814;44.686;10.842;2023-04-03T00:51:49;9.80;99.90
23291;DHT22;11814;44.686;10.842;2023-04-03T00:54:15;9.80;99.90
23291;DHT22;11814;44.686;10.842;2023-04-03T00:56:40;9.80;99.90
23291;DHT22;11814;44.686;10.842;2023-04-03T00:59:12;9.80;99.90
23291;DHT22;11814;44.686;10.842;2023-04-03T01:01:38;9.80;99.90
23291;DHT22;11814;44.686;10.842;2023-04-03T01:04:05;9.80;99.90
23291;DHT22;11814;44.686;10.842;2023-04-03T01:06:36;9.80;99.90
23291;DHT22;11814;44.686;10.842;2023-04-03T01:09:03;9.80;99.90
23291;DHT22;11814;44.686;10.842;2023-04-03T01:11:29;9.70;99.90
23291;DHT22;11814;44.686;10.842;2023-04-03T01:13:55;9.70;99.90
23291;DHT22;11814;44.686;10.842;2023-04-03T01:16:20;9.60;99.90
23291;DHT22;11814;44.686;10.842;2023-04-03T01:18:46;9.60;99.90
23291;DHT22;11814;44.686;10.842;2023-04-03T01:22:01;9.60;99.90
23291;DHT22;11814;44.686;10.842;2023-04-03T01:24:37;9.60;99.90
23291;DHT22;11814;44.686;10.842;2023-04-03T01:27:07;9.60;99.90
23291;DHT22;11814;44.686;10.842;2023-04-03T01:29:33;9.60;99.90
23291;DHT22;11814;44.686;10.842;2023-04-03T01:32:00;9.60;99.90
23291;DHT22;11814;44.686;10.842;2023-04-03T01:34:28;9.60;99.90
23291;DHT22;11814;44.686;10.842;2023-04-03T01:36:54;9.60;99.90
23291;DHT22;11814;44.686;10.842;2023-04-03T01:39:20;9.50;99.90
23291;DHT22;11814;44.686;10.842;2023-04-03T01:41:46;9.50;99.90
23291;DHT22;11814;44.686;10.842;2023-04-03T01:44:12;9.50;99.90
23291;DHT22;11814;44.686;10.842;2023-04-03T01:46:38;9.50;99.90
23291;DHT22;11814;44.686;10.842;2023-04-03T01:49:04;9.40;99.90
23291;DHT22;11814;44.686;10.842;2023-04-03T01:51:30;9.30;99.90
23291;DHT22;11814;44.686;10.842;2023-04-03T01:53:56;9.30;99.90
23291;DHT22;11814;44.686;10.842;2023-04-03T01:56:22;9.30;99.90
23291;DHT22;11814;44.686;10.842;2023-04-03T01:58:47;9.30;99.90
23291;DHT22;11814;44.686;10.842;2023-04-03T02:01:13;9.30;99.90
23291;DHT22;11814;44.686;10.842;2023-04-03T02:03:39;9.20;99.90
23291;DHT22;11814;44.686;10.842;2023-04-03T02:06:05;9.10;99.90
23291;DHT22;11814;44.686;10.842;2023-04-03T02:08:31;9.10;99.90
23291;DHT22;11814;44.686;10.842;2023-04-03T02:10:56;9.10;99.90
23291;DHT22;11814;44.686;10.842;2023-04-03T02:13:22;9.10;99.90
23291;DHT22;11814;44.686;10.842;2023-04-03T02:15:47;9.10;99.90
23291;DHT22;11814;44.686;10.842;2023-04-03T02:18:13;9.10;99.90
23291;DHT22;11814;44.686;10.842;2023-04-03T02:20:39;9.20;99.90
23291;DHT22;11814;44.686;10.842;2023-04-03T02:23:05;9.20;99.90
23291;DHT22;11814;44.686;10.842;2023-04-03T02:25:31;9.20;99.90
23291;DHT22;11814;44.686;10.842;2023-04-03T02:27:57;9.20;99.90
23291;DHT22;11814;44.686;10.842;2023-04-03T02:30:23;9.30;99.90
23291;DHT22;11814;44.686;10.842;2023-04-03T02:32:49;9.40;99.90
23291;DHT22;11814;44.686;10.842;2023-04-03T02:35:15;9.50;99.90
23291;DHT22;11814;44.686;10.842;2023-04-03T02:37:41;9.50;99.90
23291;DHT22;11814;44.686;10.842;2023-04-03T02:40:07;9.60;99.90
23291;DHT22;11814;44.686;10.842;2023-04-03T02:42:33;9.70;99.90
23291;DHT22;11814;44.686;10.842;2023-04-03T02:44:58;9.70;99.90
23291;DHT22;11814;44.686;10.842;2023-04-03T02:47:26;9.80;99.90
23291;DHT22;11814;44.686;10.842;2023-04-03T02:49:52;9.80;99.90
23291;DHT22;11814;44.686;10.842;2023-04-03T02:52:18;9.80;99.90
23291;DHT22;11814;44.686;10.842;2023-04-03T02:54:44;9.90;99.90
23291;DHT22;11814;44.686;10.842;2023-04-03T02:57:10;9.90;99.90
23291;DHT22;11814;44.686;10.842;2023-04-03T02:59:36;10.00;99.90
23291;DHT22;11814;44.686;10.842;2023-04-03T03:02:02;10.00;99.90
23291;DHT22;11814;44.686;10.842;2023-04-03T03:04:28;10.00;99.90
23291;DHT22;11814;44.686;10.842;2023-04-03T03:06:53;10.00;99.90
23291;DHT22;11814;44.686;10.842;2023-04-03T03:09:19;10.10;99.90
23291;DHT22;11814;44.686;10.842;2023-04-03T03:11:45;10.10;99.90
23291;DHT22;11814;44.686;10.842;2023-04-03T03:14:10;10.10;99.90
23291;DHT22;11814;44.686;10.842;2023-04-03T03:16:36;10.10;99.90
23291;DHT22;11814;44.686;10.842;2023-04-03T03:19:02;10.10;99.90
23291;DHT22;11814;44.686;10.842;2023-04-03T03:21:28;10.10;99.90
23291;DHT22;11814;44.686;10.842;2023-04-03T03:23:53;10.00;99.90
23291;DHT22;11814;44.686;10.842;2023-04-03T03:26:19;10.00;99.90
23291;DHT22;11814;44.686;10.842;2023-04-03T03:28:44;10.10;99.90
23291;DHT22;11814;44.686;10.842;2023-04-03T03:31:10;10.10;99.90
23291;DHT22;11814;44.686;10.842;2023-04-03T03:33:37;10.10;99.90
23291;DHT22;11814;44.686;10.842;2023-04-03T03:36:05;10.10;99.90
23291;DHT22;11814;44.686;10.842;2023-04-03T03:38:30;10.10;99.90
23291;DHT22;11814;44.686;10.842;2023-04-03T03:40:56;10.10;99.90
23291;DHT22;11814;44.686;10.842;2023-04-03T03:43:22;10.10;99.90
23291;DHT22;11814;44.686;10.842;2023-04-03T03:45:54;10.10;99.90
23291;DHT22;11814;44.686;10.842;2023-04-03T03:48:20;10.00;99.90
23291;DHT22;11814;44.686;10.842;2023-04-03T03:50:46;10.00;99.90
23291;DHT22;11814;44.686;10.842;2023-04-03T03:53:12;10.00;99.90
23291;DHT22;11814;44.686;10.842;2023-04-03T03:55:38;10.00;99.90
23291;DHT22;11814;44.686;10.842;2023-04-03T03:58:04;9.90;99.90
23291;DHT22;11814;44.686;10.842;2023-04-03T04:00:30;9.80;99.90
23291;DHT22;11814;44.686;10.842;2023-04-03T04:02:56;9.80;99.90
23291;DHT22;11814;44.686;10.842;2023-04-03T04:05:22;9.70;99.90
23291;DHT22;11814;44.686;10.842;2023-04-03T04:07:48;9.70;99.90
23291;DHT22;11814;44.686;10.842;2023-04-03T04:10:13;9.60;99.90
23291;DHT22;11814;44.686;10.842;2023-04-03T04:12:39;9.60;99.90
23291;DHT22;11814;44.686;10.842;2023-04-03T04:15:05;9.60;99.90
23291;DHT22;11814;44.686;10.842;2023-04-03T04:17:31;9.50;99.90
23291;DHT22;11814;44.686;10.842;2023-04-03T04:19:57;9.40;99.90
23291;DHT22;11814;44.686;10.842;2023-04-03T04:22:23;9.40;99.90
23291;DHT22;11814;44.686;10.842;2023-04-03T04:24:48;9.30;99.90
23291;DHT22;11814;44.686;10.842;2023-04-03T04:27:14;9.30;99.90
23291;DHT22;11814;44.686;10.842;2023-04-03T04:29:41;9.30;99.90
23291;DHT22;11814;44.686;10.842;2023-04-03T04:32:07;9.20;99.90
23291;DHT22;11814;44.686;10.842;2023-04-03T04:34:34;9.20;99.90
23291;DHT22;11814;44.686;10.842;2023-04-03T04:37:00;9.30;99.90
23291;DHT22;11814;44.686;10.842;2023-04-03T04:39:26;9.20;99.90
23291;DHT22;11814;44.686;10.842;2023-04-03T04:41:51;9.20;99.90
23291;DHT22;11814;44.686;10.842;2023-04-03T04:44:17;9.20;99.90
23291;DHT22;11814;44.686;10.842;2023-04-03T04:46:43;9.20;99.90
23291;DHT22;11814;44.686;10.842;2023-04-03T04:49:08;9.30;99.90
23291;DHT22;11814;44.686;10.842;2023-04-03T04:51:34;9.20;99.90
23291;DHT22;11814;44.686;10.842;2023-04-03T04:54:00;9.20;99.90
23291;DHT22;11814;44.686;10.842;2023-04-03T04:56:25;9.20;99.90
23291;DHT22;11814;44.686;10.842;2023-04-03T04:58:51;9.20;99.90
23291;DHT22;11814;44.686;10.842;2023-04-03T05:01:17;9.20;99.90
23291;DHT22;11814;44.686;10.842;2023-04-03T05:03:43;9.10;99.90
23291;DHT22;11814;44.686;10.842;2023-04-03T05:06:10;9.10;99.90
23291;DHT22;11814;44.686;10.842;2023-04-03T05:08:35;9.10;99.90
23291;DHT22;11814;44.686;10.842;2023-04-03T05:11:01;9.10;99.90
23291;DHT22;11814;44.686;10.842;2023-04-03T05:13:27;9.10;99.90
23291;DHT22;11814;44.686;10.842;2023-04-03T05:15:52;9.10;99.90
23291;DHT22;11814;44.686;10.842;2023-04-03T05:18:18;9.10;99.90
23291;DHT22;11814;44.686;10.842;2023-04-03T05:20:44;9.00;99.90
23291;DHT22;11814;44.686;10.842;2023-04-03T05:23:10;9.00;99.90
23291;DHT22;11814;44.686;10.842;2023-04-03T05:25:38;8.90;99.90
23291;DHT22;11814;44.686;10.842;2023-04-03T05:28:03;8.90;99.90
23291;DHT22;11814;44.686;10.842;2023-04-03T05:30:29;8.90;99.90
23291;DHT22;11814;44.686;10.842;2023-04-03T05:32:55;8.90;99.90
23291;DHT22;11814;44.686;10.842;2023-04-03T05:35:21;9.00;99.90
23291;DHT22;11814;44.686;10.842;2023-04-03T05:37:46;9.00;99.90
23291;DHT22;11814;44.686;10.842;2023-04-03T05:40:12;9.20;99.90
23291;DHT22;11814;44.686;10.842;2023-04-03T05:42:38;9.50;99.90
23291;DHT22;11814;44.686;10.842;2023-04-03T05:45:04;9.80;99.90
23291;DHT22;11814;44.686;10.842;2023-04-03T05:47:30;10.00;99.90
23291;DHT22;11814;44.686;10.842;2023-04-03T05:49:56;10.20;99.90
23291;DHT22;11814;44.686;10.842;2023-04-03T05:54:47;10.30;99.90
23291;DHT22;11814;44.686;10.842;2023-04-03T05:57:16;10.30;99.90
23291;DHT22;11814;44.686;10.842;2023-04-03T05:59:43;10.30;99.90
23291;DHT22;11814;44.686;10.842;2023-04-03T06:02:14;10.40;99.90
23291;DHT22;11814;44.686;10.842;2023-04-03T06:04:40;10.40;99.90
23291;DHT22;11814;44.686;10.842;2023-04-03T06:07:06;10.50;99.90
23291;DHT22;11814;44.686;10.842;2023-04-03T06:09:33;10.60;99.90
23291;DHT22;11814;44.686;10.842;2023-04-03T06:11:59;10.70;99.90
23291;DHT22;11814;44.686;10.842;2023-04-03T06:14:26;10.80;99.90
23291;DHT22;11814;44.686;10.842;2023-04-03T06:16:52;10.80;99.90
23291;DHT22;11814;44.686;10.842;2023-04-03T06:19:19;10.90;99.90
23291;DHT22;11814;44.686;10.842;2023-04-03T06:21:45;11.00;99.90
23291;DHT22;11814;44.686;10.842;2023-04-03T06:24:15;11.10;99.90
23291;DHT22;11814;44.686;10.842;2023-04-03T06:26:40;11.30;99.90
23291;DHT22;11814;44.686;10.842;2023-04-03T06:29:06;11.50;99.90
23291;DHT22;11814;44.686;10.842;2023-04-03T06:31:32;11.80;99.90
23291;DHT22;11814;44.686;10.842;2023-04-03T06:33:58;12.00;99.90
23291;DHT22;11814;44.686;10.842;2023-04-03T06:36:24;12.30;99.90
23291;DHT22;11814;44.686;10.842;2023-04-03T06:38:49;12.50;99.90
23291;DHT22;11814;44.686;10.842;2023-04-03T06:41:16;12.60;99.90
23291;DHT22;11814;44.686;10.842;2023-04-03T06:43:43;12.60;99.90
23291;DHT22;11814;44.686;10.842;2023-04-03T06:46:21;12.80;99.90
23291;DHT22;11814;44.686;10.842;2023-04-03T06:48:48;13.00;99.90
23291;DHT22;11814;44.686;10.842;2023-04-03T06:51:25;13.10;99.90
23291;DHT22;11814;44.686;10.842;2023-04-03T06:53:53;13.30;99.90
23291;DHT22;11814;44.686;10.842;2023-04-03T06:56:20;13.60;99.90
23291;DHT22;11814;44.686;10.842;2023-04-03T06:58:46;14.10;99.90
23291;DHT22;11814;44.686;10.842;2023-04-03T07:01:14;14.40;99.90
23291;DHT22;11814;44.686;10.842;2023-04-03T07:03:40;14.50;99.90
23291;DHT22;11814;44.686;10.842;2023-04-03T07:06:07;14.50;99.90
23291;DHT22;11814;44.686;10.842;2023-04-03T07:08:35;14.60;99.50
23291;DHT22;11814;44.686;10.842;2023-04-03T07:11:00;14.50;99.00
23291;DHT22;11814;44.686;10.842;2023-04-03T07:13:26;14.40;98.80
23291;DHT22;11814;44.686;10.842;2023-04-03T07:15:52;14.30;98.70
23291;DHT22;11814;44.686;10.842;2023-04-03T07:18:19;14.10;99.10
23291;DHT22;11814;44.686;10.842;2023-04-03T07:20:45;14.10;99.30
23291;DHT22;11814;44.686;10.842;2023-04-03T07:23:10;14.10;99.60
23291;DHT22;11814;44.686;10.842;2023-04-03T07:25:36;14.30;99.70
23291;DHT22;11814;44.686;10.842;2023-04-03T07:28:02;14.40;99.40
23291;DHT22;11814;44.686;10.842;2023-04-03T07:30:29;14.50;99.50
23291;DHT22;11814;44.686;10.842;2023-04-03T07:32:55;14.80;99.00
23291;DHT22;11814;44.686;10.842;2023-04-03T07:35:20;14.90;98.90
23291;DHT22;11814;44.686;10.842;2023-04-03T07:37:46;15.10;98.30
23291;DHT22;11814;44.686;10.842;2023-04-03T07:40:12;15.20;98.00
23291;DHT22;11814;44.686;10.842;2023-04-03T07:42:38;15.40;98.20
23291;DHT22;11814;44.686;10.842;2023-04-03T07:45:04;15.90;97.50
23291;DHT22;11814;44.686;10.842;2023-04-03T07:47:30;16.20;96.50
23291;DHT22;11814;44.686;10.842;2023-04-03T07:49:56;16.50;95.50
23291;DHT22;11814;44.686;10.842;2023-04-03T07:52:23;16.60;94.40
23291;DHT22;11814;44.686;10.842;2023-04-03T07:54:49;16.40;93.70
23291;DHT22;11814;44.686;10.842;2023-04-03T07:57:14;16.30;93.60
23291;DHT22;11814;44.686;10.842;2023-04-03T07:59:40;16.10;93.60
23291;DHT22;11814;44.686;10.842;2023-04-03T08:02:12;16.10;94.30
23291;DHT22;11814;44.686;10.842;2023-04-03T08:04:38;16.20;94.40
23291;DHT22;11814;44.686;10.842;2023-04-03T08:07:04;16.40;94.40
23291;DHT22;11814;44.686;10.842;2023-04-03T08:09:30;16.50;93.90
23291;DHT22;11814;44.686;10.842;2023-04-03T08:11:57;16.70;93.30
23291;DHT22;11814;44.686;10.842;2023-04-03T08:14:23;16.60;93.20
23291;DHT22;11814;44.686;10.842;2023-04-03T08:16:48;16.50;92.90
23291;DHT22;11814;44.686;10.842;2023-04-03T08:19:15;16.50;93.40
23291;DHT22;11814;44.686;10.842;2023-04-03T08:21:42;16.60;93.70
23291;DHT22;11814;44.686;10.842;2023-04-03T08:24:08;16.90;93.40
23291;DHT22;11814;44.686;10.842;2023-04-03T08:26:34;17.20;93.10
23291;DHT22;11814;44.686;10.842;2023-04-03T08:29:00;17.60;93.10
23291;DHT22;11814;44.686;10.842;2023-04-03T08:31:26;18.00;92.00
23291;DHT22;11814;44.686;10.842;2023-04-03T08:33:52;18.20;91.50
23291;DHT22;11814;44.686;10.842;2023-04-03T08:36:23;18.60;91.00
23291;DHT22;11814;44.686;10.842;2023-04-03T08:38:50;18.90;89.80
23291;DHT22;11814;44.686;10.842;2023-04-03T08:41:31;18.70;87.50
23291;DHT22;11814;44.686;10.842;2023-04-03T08:49:06;18.20;86.30
23291;DHT22;11814;44.686;10.842;2023-04-03T08:51:34;17.90;87.30
23291;DHT22;11814;44.686;10.842;2023-04-03T08:54:19;17.90;87.50
23291;DHT22;11814;44.686;10.842;2023-04-03T08:56:46;17.80;86.90
23291;DHT22;11814;44.686;10.842;2023-04-03T08:59:17;17.70;87.00
23291;DHT22;11814;44.686;10.842;2023-04-03T09:01:45;17.60;87.10
23291;DHT22;11814;44.686;10.842;2023-04-03T09:04:15;17.50;87.50
23291;DHT22;11814;44.686;10.842;2023-04-03T09:06:46;17.50;87.30
23291;DHT22;11814;44.686;10.842;2023-04-03T09:12:00;17.40;87.40
23291;DHT22;11814;44.686;10.842;2023-04-03T09:14:54;17.40;87.40
23291;DHT22;11814;44.686;10.842;2023-04-03T09:20:14;17.50;87.40
23291;DHT22;11814;44.686;10.842;2023-04-03T09:22:43;17.40;87.80
23291;DHT22;11814;44.686;10.842;2023-04-03T09:27:44;17.20;87.60
23291;DHT22;11814;44.686;10.842;2023-04-03T09:30:29;16.90;88.10
23291;DHT22;11814;44.686;10.842;2023-04-03T09:32:56;16.80;88.00
23291;DHT22;11814;44.686;10.842;2023-04-03T09:35:30;16.80;88.40
23291;DHT22;11814;44.686;10.842;2023-04-03T09:38:22;17.10;88.50
23291;DHT22;11814;44.686;10.842;2023-04-03T09:41:06;17.30;87.60
23291;DHT22;11814;44.686;10.842;2023-04-03T09:43:33;17.10;86.70
23291;DHT22;11814;44.686;10.842;2023-04-03T09:46:30;16.90;86.80
23291;DHT22;11814;44.686;10.842;2023-04-03T09:49:03;16.60;87.60
23291;DHT22;11814;44.686;10.842;2023-04-03T09:51:30;16.30;88.10
23291;DHT22;11814;44.686;10.842;2023-04-03T09:53:57;16.20;88.50
23291;DHT22;11814;44.686;10.842;2023-04-03T09:56:30;16.00;89.30
23291;DHT22;11814;44.686;10.842;2023-04-03T10:01:34;16.00;90.60
23291;DHT22;11814;44.686;10.842;2023-04-03T10:04:13;16.10;90.70
23291;DHT22;11814;44.686;10.842;2023-04-03T10:06:41;16.30;90.90
23291;DHT22;11814;44.686;10.842;2023-04-03T10:09:29;16.50;91.00
23291;DHT22;11814;44.686;10.842;2023-04-03T10:12:11;16.80;91.00
23291;DHT22;11814;44.686;10.842;2023-04-03T10:28:04;17.10;84.80
23291;DHT22;11814;44.686;10.842;2023-04-03T10:30:36;17.00;83.00
23291;DHT22;11814;44.686;10.842;2023-04-03T10:38:55;17.30;83.50
23291;DHT22;11814;44.686;10.842;2023-04-03T10:49:55;17.40;81.10
23291;DHT22;11814;44.686;10.842;2023-04-03T10:52:37;17.60;80.40
23291;DHT22;11814;44.686;10.842;2023-04-03T10:57:49;17.30;77.80
23291;DHT22;11814;44.686;10.842;2023-04-03T11:00:22;17.30;78.20
23291;DHT22;11814;44.686;10.842;2023-04-03T11:02:54;17.30;78.10
23291;DHT22;11814;44.686;10.842;2023-04-03T11:08:58;17.20;77.20
23291;DHT22;11814;44.686;10.842;2023-04-03T11:11:31;17.10;77.00
23291;DHT22;11814;44.686;10.842;2023-04-03T11:14:02;17.10;76.60
23291;DHT22;11814;44.686;10.842;2023-04-03T11:16:33;17.10;76.40
23291;DHT22;11814;44.686;10.842;2023-04-03T11:19:04;17.00;75.60
23291;DHT22;11814;44.686;10.842;2023-04-03T11:21:52;17.00;75.90
23291;DHT22;11814;44.686;10.842;2023-04-03T11:24:27;17.20;76.40
23291;DHT22;11814;44.686;10.842;2023-04-03T11:26:56;17.10;75.90
23291;DHT22;11814;44.686;10.842;2023-04-03T11:29:29;17.10;76.60
23291;DHT22;11814;44.686;10.842;2023-04-03T11:34:51;16.90;79.00
23291;DHT22;11814;44.686;10.842;2023-04-03T11:40:07;16.60;81.70
23291;DHT22;11814;44.686;10.842;2023-04-03T11:42:40;16.60;82.90
23291;DHT22;11814;44.686;10.842;2023-04-03T11:50:46;16.70;83.10
23291;DHT22;11814;44.686;10.842;2023-04-03T11:58:26;16.60;82.90
23291;DHT22;11814;44.686;10.842;2023-04-03T12:01:04;16.70;82.60
23291;DHT22;11814;44.686;10.842;2023-04-03T12:11:23;16.90;81.00
23291;DHT22;11814;44.686;10.842;2023-04-03T12:35:17;16.60;78.70
23291;DHT22;11814;44.686;10.842;2023-04-03T12:40:36;16.40;78.40
23291;DHT22;11814;44.686;10.842;2023-04-03T12:48:55;16.70;76.40
23291;DHT22;11814;44.686;10.842;2023-04-03T12:51:43;16.90;75.90
23291;DHT22;11814;44.686;10.842;2023-04-03T12:54:32;16.80;75.50
23291;DHT22;11814;44.686;10.842;2023-04-03T12:59:43;16.70;75.80
23291;DHT22;11814;44.686;10.842;2023-04-03T13:02:27;16.70;75.90
23291;DHT22;11814;44.686;10.842;2023-04-03T13:04:56;16.60;75.70
23291;DHT22;11814;44.686;10.842;2023-04-03T13:07:32;16.50;75.00
23291;DHT22;11814;44.686;10.842;2023-04-03T13:10:19;16.50;74.90
23291;DHT22;11814;44.686;10.842;2023-04-03T13:12:54;16.50;74.80
23291;DHT22;11814;44.686;10.842;2023-04-03T13:15:29;16.40;75.20
23291;DHT22;11814;44.686;10.842;2023-04-03T13:17:56;16.40;75.20
23291;DHT22;11814;44.686;10.842;2023-04-03T13:23:47;16.40;75.70
23291;DHT22;11814;44.686;10.842;2023-04-03T13:26:16;16.40;75.20
23291;DHT22;11814;44.686;10.842;2023-04-03T13:28:44;16.40;75.40
23291;DHT22;11814;44.686;10.842;2023-04-03T13:34:03;16.30;74.90
23291;DHT22;11814;44.686;10.842;2023-04-03T13:36:33;16.20;72.70
23291;DHT22;11814;44.686;10.842;2023-04-03T13:39:05;16.20;72.10
23291;DHT22;11814;44.686;10.842;2023-04-03T13:41:35;16.20;71.00
23291;DHT22;11814;44.686;10.842;2023-04-03T13:46:52;16.40;69.40
23291;DHT22;11814;44.686;10.842;2023-04-03T13:49:30;16.40;66.40
23291;DHT22;11814;44.686;10.842;2023-04-03T13:51:56;16.50;64.20
23291;DHT22;11814;44.686;10.842;2023-04-03T13:54:37;16.60;61.70
23291;DHT22;11814;44.686;10.842;2023-04-03T13:57:12;16.70;61.20
23291;DHT22;11814;44.686;10.842;2023-04-03T13:59:38;16.70;60.10
23291;DHT22;11814;44.686;10.842;2023-04-03T14:04:31;16.90;59.10
23291;DHT22;11814;44.686;10.842;2023-04-03T14:06:58;16.80;57.60
23291;DHT22;11814;44.686;10.842;2023-04-03T14:09:26;16.80;57.70
23291;DHT22;11814;44.686;10.842;2023-04-03T14:12:24;16.90;56.90
23291;DHT22;11814;44.686;10.842;2023-04-03T14:14:51;16.90;56.60
23291;DHT22;11814;44.686;10.842;2023-04-03T14:17:21;16.90;56.80
23291;DHT22;11814;44.686;10.842;2023-04-03T14:19:50;16.90;56.60
23291;DHT22;11814;44.686;10.842;2023-04-03T14:22:24;17.00;56.70
23291;DHT22;11814;44.686;10.842;2023-04-03T14:24:51;17.10;56.60
23291;DHT22;11814;44.686;10.842;2023-04-03T14:27:35;17.20;56.10
23291;DHT22;11814;44.686;10.842;2023-04-03T14:30:01;17.10;55.10
23291;DHT22;11814;44.686;10.842;2023-04-03T14:32:29;17.10;55.20
23291;DHT22;11814;44.686;10.842;2023-04-03T14:34:55;17.00;55.20
23291;DHT22;11814;44.686;10.842;2023-04-03T14:37:23;16.90;55.60
23291;DHT22;11814;44.686;10.842;2023-04-03T14:39:51;16.90;55.70
23291;DHT22;11814;44.686;10.842;2023-04-03T14:42:28;16.90;55.90
23291;DHT22;11814;44.686;10.842;2023-04-03T14:44:54;17.00;56.10
23291;DHT22;11814;44.686;10.842;2023-04-03T14:47:22;16.90;56.20
23291;DHT22;11814;44.686;10.842;2023-04-03T14:49:49;16.90;56.50
23291;DHT22;11814;44.686;10.842;2023-04-03T14:52:28;16.90;57.00
23291;DHT22;11814;44.686;10.842;2023-04-03T14:54:54;17.00;57.50
23291;DHT22;11814;44.686;10.842;2023-04-03T14:57:22;17.00;57.50
23291;DHT22;11814;44.686;10.842;2023-04-03T14:59:49;17.00;57.50
23291;DHT22;11814;44.686;10.842;2023-04-03T15:02:35;17.00;57.60
23291;DHT22;11814;44.686;10.842;2023-04-03T15:05:04;16.90;57.80
23291;DHT22;11814;44.686;10.842;2023-04-03T15:07:39;16.90;58.00
23291;DHT22;11814;44.686;10.842;2023-04-03T15:10:20;16.90;58.00
23291;DHT22;11814;44.686;10.842;2023-04-03T15:12:47;16.90;57.60
23291;DHT22;11814;44.686;10.842;2023-04-03T15:15:14;17.00;56.90
23291;DHT22;11814;44.686;10.842;2023-04-03T15:17:41;17.00;56.70
23291;DHT22;11814;44.686;10.842;2023-04-03T15:20:16;17.00;55.80
23291;DHT22;11814;44.686;10.842;2023-04-03T15:22:42;16.90;55.40
23291;DHT22;11814;44.686;10.842;2023-04-03T15:25:08;16.90;55.90
23291;DHT22;11814;44.686;10.842;2023-04-03T15:27:34;16.90;56.70
23291;DHT22;11814;44.686;10.842;2023-04-03T15:30:00;16.90;56.60
23291;DHT22;11814;44.686;10.842;2023-04-03T15:32:26;16.80;57.00
23291;DHT22;11814;44.686;10.842;2023-04-03T15:34:53;16.90;57.10
23291;DHT22;11814;44.686;10.842;2023-04-03T15:37:19;16.80;56.70
23291;DHT22;11814;44.686;10.842;2023-04-03T15:39:45;16.80;56.60
23291;DHT22;11814;44.686;10.842;2023-04-03T15:42:11;16.70;57.10
23291;DHT22;11814;44.686;10.842;2023-04-03T15:44:38;16.80;57.60
23291;DHT22;11814;44.686;10.842;2023-04-03T15:47:04;16.80;57.40
23291;DHT22;11814;44.686;10.842;2023-04-03T15:49:32;16.80;57.60
23291;DHT22;11814;44.686;10.842;2023-04-03T15:51:58;16.80;57.40
23291;DHT22;11814;44.686;10.842;2023-04-03T15:54:24;16.60;56.70
23291;DHT22;11814;44.686;10.842;2023-04-03T15:56:51;16.50;56.80
23291;DHT22;11814;44.686;10.842;2023-04-03T15:59:17;16.40;56.40
23291;DHT22;11814;44.686;10.842;2023-04-03T16:01:43;16.40;56.20
23291;DHT22;11814;44.686;10.842;2023-04-03T16:04:09;16.30;55.50
23291;DHT22;11814;44.686;10.842;2023-04-03T16:06:36;16.20;55.20
23291;DHT22;11814;44.686;10.842;2023-04-03T16:09:03;16.20;54.60
23291;DHT22;11814;44.686;10.842;2023-04-03T16:11:29;16.10;54.00
23291;DHT22;11814;44.686;10.842;2023-04-03T16:13:56;16.10;54.10
23291;DHT22;11814;44.686;10.842;2023-04-03T16:16:22;16.10;53.90
23291;DHT22;11814;44.686;10.842;2023-04-03T16:18:49;16.00;54.10
23291;DHT22;11814;44.686;10.842;2023-04-03T16:21:16;16.00;54.20
23291;DHT22;11814;44.686;10.842;2023-04-03T16:23:42;16.00;54.10
23291;DHT22;11814;44.686;10.842;2023-04-03T16:26:08;16.00;54.50
23291;DHT22;11814;44.686;10.842;2023-04-03T16:28:34;16.00;54.70
23291;DHT22;11814;44.686;10.842;2023-04-03T16:31:01;16.00;54.70
23291;DHT22;11814;44.686;10.842;2023-04-03T16:33:28;15.90;55.00
23291;DHT22;11814;44.686;10.842;2023-04-03T16:35:55;15.90;55.10
23291;DHT22;11814;44.686;10.842;2023-04-03T16:38:21;15.90;54.70
23291;DHT22;11814;44.686;10.842;2023-04-03T16:40:48;15.80;54.60
23291;DHT22;11814;44.686;10.842;2023-04-03T16:43:15;15.70;54.10
23291;DHT22;11814;44.686;10.842;2023-04-03T16:45:41;15.60;54.10
23291;DHT22;11814;44.686;10.842;2023-04-03T16:48:07;15.50;54.50
23291;DHT22;11814;44.686;10.842;2023-04-03T16:50:33;15.40;54.80
23291;DHT22;11814;44.686;10.842;2023-04-03T16:52:59;15.40;55.20
23291;DHT22;11814;44.686;10.842;2023-04-03T16:55:25;15.40;55.50
23291;DHT22;11814;44.686;10.842;2023-04-03T16:57:50;15.30;55.80
23291;DHT22;11814;44.686;10.842;2023-04-03T17:00:16;15.30;56.20
23291;DHT22;11814;44.686;10.842;2023-04-03T17:02:42;15.20;56.00
23291;DHT22;11814;44.686;10.842;2023-04-03T17:05:08;15.20;56.00
23291;DHT22;11814;44.686;10.842;2023-04-03T17:07:34;15.20;56.40
23291;DHT22;11814;44.686;10.842;2023-04-03T17:10:00;15.10;56.00
23291;DHT22;11814;44.686;10.842;2023-04-03T17:12:26;15.00;55.90
23291;DHT22;11814;44.686;10.842;2023-04-03T17:14:52;14.90;55.80
23291;DHT22;11814;44.686;10.842;2023-04-03T17:17:23;14.80;56.00
23291;DHT22;11814;44.686;10.842;2023-04-03T17:19:50;14.80;56.10
23291;DHT22;11814;44.686;10.842;2023-04-03T17:22:16;14.80;56.20
23291;DHT22;11814;44.686;10.842;2023-04-03T17:24:43;14.70;56.40
23291;DHT22;11814;44.686;10.842;2023-04-03T17:27:09;14.60;56.50
23291;DHT22;11814;44.686;10.842;2023-04-03T17:29:34;14.60;56.80